createdAt,value
2017-12-27T00:01:11.068Z,81.90
2017-12-27T00:03:44.340Z,77.90
2017-12-27T00:06:17.616Z,77.50
2017-12-27T00:08:51.644Z,75.30
2017-12-27T00:11:34.788Z,76.00
2017-12-27T00:14:07.968Z,73.20
2017-12-27T00:16:41.272Z,72.60
2017-12-27T00:19:14.647Z,73.20
2017-12-27T00:21:48.557Z,79.60
2017-12-27T00:24:22.579Z,80.10
2017-12-27T00:26:55.837Z,73.30
2017-12-27T00:29:29.182Z,75.30
2017-12-27T00:31:56.264Z,79.60
2017-12-27T00:34:23.764Z,83.10
2017-12-27T00:36:52.040Z,82.80
2017-12-27T00:39:19.932Z,80.30
2017-12-27T00:41:47.449Z,80.10
2017-12-27T00:44:14.939Z,79.50
2017-12-27T00:46:42.448Z,79.90
2017-12-27T00:49:09.967Z,82.50
2017-12-27T00:51:37.472Z,82.70
2017-12-27T00:54:04.969Z,80.20
2017-12-27T00:56:32.469Z,80.00
2017-12-27T00:58:59.963Z,80.80
2017-12-27T01:01:28.244Z,86.20
2017-12-27T01:03:56.508Z,86.20
2017-12-27T01:06:24.040Z,86.20
2017-12-27T01:08:51.540Z,84.60
2017-12-27T01:11:19.804Z,85.90
2017-12-27T01:13:47.317Z,85.90
2017-12-27T01:16:14.811Z,84.70
2017-12-27T01:18:42.330Z,84.60
2017-12-27T01:21:09.824Z,81.60
2017-12-27T01:23:37.340Z,80.20
2017-12-27T01:26:04.837Z,82.50
2017-12-27T01:28:32.356Z,82.00
2017-12-27T01:30:59.852Z,82.40
2017-12-27T01:33:27.348Z,76.70
2017-12-27T01:35:55.624Z,79.20
2017-12-27T01:38:23.900Z,79.00
2017-12-27T01:40:52.155Z,78.10
2017-12-27T01:43:19.680Z,77.90
2017-12-27T01:45:47.172Z,82.00
2017-12-27T01:48:14.664Z,84.90
2017-12-27T01:50:42.176Z,81.80
2017-12-27T01:53:09.671Z,82.20
2017-12-27T01:55:37.952Z,79.90
2017-12-27T01:58:06.216Z,82.60
2017-12-27T02:00:34.480Z,84.30
2017-12-27T02:03:01.992Z,84.40
2017-12-27T02:05:29.488Z,77.60
2017-12-27T02:07:56.992Z,77.90
2017-12-27T02:10:24.496Z,79.70
2017-12-27T02:12:52.017Z,79.90
2017-12-27T02:15:19.516Z,80.70
2017-12-27T02:17:47.017Z,81.20
2017-12-27T02:20:15.297Z,80.40
2017-12-27T02:22:42.808Z,77.10
2017-12-27T02:25:10.316Z,77.10
2017-12-27T02:27:37.815Z,78.10
2017-12-27T02:30:05.330Z,76.10
2017-12-27T02:32:33.597Z,78.10
2017-12-27T02:35:01.877Z,78.10
2017-12-27T02:37:30.161Z,79.50
2017-12-27T02:40:13.362Z,78.00
2017-12-27T02:42:40.888Z,79.90
2017-12-27T02:45:08.380Z,79.50
2017-12-27T02:47:35.908Z,80.50
2017-12-27T02:50:03.792Z,82.00
2017-12-27T02:52:31.288Z,82.60
2017-12-27T02:54:59.665Z,84.10
2017-12-27T02:57:27.937Z,82.50
2017-12-27T02:59:56.196Z,81.30
2017-12-27T03:02:23.710Z,79.80
2017-12-27T03:04:51.212Z,79.90
2017-12-27T03:07:18.707Z,80.50
2017-12-27T03:09:46.234Z,80.90
2017-12-27T03:12:13.728Z,81.90
2017-12-27T03:14:41.261Z,81.80
2017-12-27T03:17:09.545Z,81.90
2017-12-27T03:19:37.808Z,83.60
2017-12-27T03:22:06.082Z,82.60
2017-12-27T03:24:33.637Z,82.60
2017-12-27T03:27:01.165Z,81.30
2017-12-27T03:29:28.648Z,80.20
2017-12-27T03:31:56.144Z,79.20
2017-12-27T03:34:23.656Z,79.90
2017-12-27T03:36:51.161Z,78.90
2017-12-27T03:39:18.677Z,79.50
2017-12-27T03:41:46.193Z,81.00
2017-12-27T03:44:13.717Z,81.80
2017-12-27T03:46:41.985Z,81.10
2017-12-27T03:49:09.492Z,81.00
2017-12-27T03:51:37.021Z,81.80
2017-12-27T03:54:05.280Z,80.50
2017-12-27T03:56:32.781Z,80.40
2017-12-27T03:59:01.948Z,79.10
2017-12-27T04:01:30.229Z,78.60
2017-12-27T04:03:58.537Z,78.00
2017-12-27T04:06:26.028Z,77.90
2017-12-27T04:08:53.552Z,77.80
2017-12-27T04:11:21.048Z,75.30
2017-12-27T04:13:48.544Z,75.80
2017-12-27T04:16:16.820Z,78.00
2017-12-27T04:18:45.089Z,77.10
2017-12-27T04:21:13.348Z,75.60
2017-12-27T04:23:40.855Z,74.10
2017-12-27T04:26:08.384Z,73.00
2017-12-27T04:28:36.653Z,74.80
2017-12-27T04:31:04.925Z,76.10
2017-12-27T04:33:32.453Z,76.00
2017-12-27T04:36:00.353Z,77.10
2017-12-27T04:38:27.848Z,77.70
2017-12-27T04:40:55.364Z,78.20
2017-12-27T04:43:22.860Z,78.70
2017-12-27T04:45:50.361Z,77.90
2017-12-27T04:48:18.645Z,78.30
2017-12-27T04:50:46.161Z,75.30
2017-12-27T04:53:13.675Z,75.70
2017-12-27T04:55:41.172Z,76.60
2017-12-27T04:58:08.677Z,74.70
2017-12-27T05:00:36.289Z,76.70
2017-12-27T05:03:03.780Z,77.30
2017-12-27T05:05:31.281Z,76.80
2017-12-27T05:07:59.565Z,76.20
2017-12-27T05:10:27.849Z,78.10
2017-12-27T05:12:56.117Z,74.30
2017-12-27T05:15:24.481Z,74.60
2017-12-27T05:17:51.985Z,73.90
2017-12-27T05:20:19.480Z,72.60
2017-12-27T05:22:47.001Z,73.20
2017-12-27T05:25:14.506Z,74.10
2017-12-27T05:27:42.000Z,75.60
2017-12-27T05:30:09.515Z,75.70
2017-12-27T05:32:37.008Z,76.50
2017-12-27T05:35:05.294Z,75.70
2017-12-27T05:37:33.561Z,73.00
2017-12-27T05:40:01.824Z,76.10
2017-12-27T05:42:29.332Z,76.20
2017-12-27T05:44:56.837Z,73.00
2017-12-27T05:47:24.344Z,73.50
2017-12-27T05:49:51.849Z,72.30
2017-12-27T05:52:19.365Z,74.70
2017-12-27T05:54:46.874Z,75.40
2017-12-27T05:57:14.384Z,73.40
2017-12-27T05:59:41.880Z,72.90
2017-12-27T06:02:09.409Z,73.00
2017-12-27T06:04:37.301Z,76.50
2017-12-27T06:07:04.813Z,75.80
2017-12-27T06:09:32.333Z,76.80
2017-12-27T06:11:59.833Z,74.80
2017-12-27T06:14:27.343Z,75.00
2017-12-27T06:16:54.844Z,77.00
2017-12-27T06:19:22.349Z,79.40
2017-12-27T06:21:50.252Z,79.80
2017-12-27T06:24:18.512Z,76.20
2017-12-27T06:26:46.012Z,76.20
2017-12-27T06:29:13.536Z,76.10
2017-12-27T06:31:41.028Z,79.10
2017-12-27T06:34:08.559Z,79.30
2017-12-27T06:36:36.828Z,81.00
2017-12-27T06:39:04.330Z,81.00
2017-12-27T06:41:31.836Z,81.90
2017-12-27T06:43:59.337Z,82.10
2017-12-27T06:46:26.852Z,81.10
2017-12-27T06:48:54.532Z,80.40
2017-12-27T06:51:22.797Z,85.40
2017-12-27T06:53:50.317Z,85.30
2017-12-27T06:56:17.824Z,84.20
2017-12-27T06:58:46.088Z,81.60
2017-12-27T07:01:13.600Z,81.50
2017-12-27T07:03:41.100Z,86.70
2017-12-27T07:06:08.613Z,74.60
2017-12-27T07:08:36.121Z,76.20
2017-12-27T07:11:03.621Z,79.50
2017-12-27T07:13:31.133Z,80.60
2017-12-27T07:15:58.743Z,80.80
2017-12-27T07:18:26.269Z,81.30
2017-12-27T07:20:53.778Z,80.80
2017-12-27T07:23:21.282Z,84.50
2017-12-27T07:25:48.784Z,83.50
2017-12-27T07:28:16.295Z,85.00
2017-12-27T07:30:43.821Z,86.60
2017-12-27T07:33:11.312Z,86.10
2017-12-27T07:35:38.825Z,84.40
2017-12-27T07:38:06.322Z,85.20
2017-12-27T07:40:33.837Z,85.80
2017-12-27T07:43:01.332Z,85.60
2017-12-27T07:45:28.844Z,86.40
2017-12-27T07:47:56.365Z,84.80
2017-12-27T07:50:23.873Z,85.30
2017-12-27T07:52:52.516Z,88.20
2017-12-27T07:55:20.029Z,86.40
2017-12-27T07:57:47.532Z,88.10
2017-12-27T08:00:15.049Z,88.60
2017-12-27T08:02:42.940Z,87.70
2017-12-27T08:05:10.436Z,88.10
2017-12-27T08:07:38.721Z,89.00
2017-12-27T08:10:06.212Z,89.00
2017-12-27T08:12:33.712Z,88.60
2017-12-27T08:15:01.229Z,87.60
2017-12-27T08:17:28.786Z,88.10
2017-12-27T08:19:56.256Z,89.10
2017-12-27T08:22:24.542Z,87.10
2017-12-27T08:24:52.048Z,87.30
2017-12-27T08:27:19.549Z,87.80
2017-12-27T08:29:47.068Z,86.30
2017-12-27T08:32:14.585Z,86.80
2017-12-27T08:34:42.112Z,85.10
2017-12-27T08:37:10.014Z,85.80
2017-12-27T08:39:37.508Z,87.20
2017-12-27T08:42:05.030Z,86.30
2017-12-27T08:44:32.521Z,86.30
2017-12-27T08:47:00.817Z,87.80
2017-12-27T08:49:28.317Z,87.60
2017-12-27T08:51:55.812Z,86.60
2017-12-27T08:54:24.096Z,85.70
2017-12-27T08:56:51.984Z,86.30
2017-12-27T08:59:19.485Z,88.30
2017-12-27T09:01:47.004Z,88.20
2017-12-27T09:04:15.277Z,89.00
2017-12-27T09:06:42.850Z,90.00
2017-12-27T09:09:10.685Z,90.20
2017-12-27T09:11:38.202Z,89.30
2017-12-27T09:14:07.204Z,90.70
2017-12-27T09:16:34.713Z,90.90
2017-12-27T09:19:02.212Z,91.10
2017-12-27T09:21:29.721Z,90.20
2017-12-27T09:23:57.305Z,91.30
2017-12-27T09:26:24.757Z,90.80
2017-12-27T09:28:52.256Z,91.70
2017-12-27T09:31:19.758Z,91.40
2017-12-27T09:33:47.267Z,91.50
2017-12-27T09:36:14.769Z,91.80
2017-12-27T09:38:42.708Z,91.60
2017-12-27T09:41:10.204Z,91.60
2017-12-27T09:43:37.704Z,91.80
2017-12-27T09:46:05.207Z,91.80
2017-12-27T09:48:32.713Z,92.30
2017-12-27T09:51:00.221Z,91.80
2017-12-27T09:53:27.762Z,92.30
2017-12-27T09:55:55.261Z,92.50
2017-12-27T09:58:22.780Z,92.70
2017-12-27T10:00:50.280Z,92.30
2017-12-27T10:03:17.782Z,92.20
2017-12-27T10:05:45.284Z,92.30
2017-12-27T10:08:12.797Z,92.50
2017-12-27T10:10:40.303Z,93.20
2017-12-27T10:13:07.809Z,93.40
2017-12-27T10:15:35.307Z,93.10
2017-12-27T10:18:03.576Z,93.40
2017-12-27T10:20:31.101Z,93.30
2017-12-27T10:22:58.609Z,93.20
2017-12-27T10:25:26.505Z,93.50
2017-12-27T10:27:54.013Z,93.50
2017-12-27T10:30:22.280Z,93.80
2017-12-27T10:32:49.785Z,93.70
2017-12-27T10:35:17.293Z,93.40
2017-12-27T10:37:44.798Z,92.70
2017-12-27T10:40:12.295Z,92.90
2017-12-27T10:42:39.805Z,93.50
2017-12-27T10:45:07.705Z,93.80
2017-12-27T10:47:35.205Z,93.90
2017-12-27T10:50:02.717Z,93.90
2017-12-27T10:52:30.221Z,94.00
2017-12-27T10:54:57.728Z,94.00
2017-12-27T10:57:25.253Z,94.00
2017-12-27T10:59:53.520Z,94.10
2017-12-27T11:02:21.797Z,94.20
2017-12-27T11:04:49.308Z,93.90
2017-12-27T11:07:16.796Z,93.00
2017-12-27T11:09:44.326Z,91.90
2017-12-27T11:12:12.209Z,91.90
2017-12-27T11:14:39.712Z,90.90
2017-12-27T11:17:07.980Z,91.60
2017-12-27T11:19:36.249Z,91.10
2017-12-27T11:22:03.766Z,91.10
2017-12-27T11:24:31.273Z,91.00
2017-12-27T11:26:59.532Z,91.00
2017-12-27T11:29:27.032Z,91.20
2017-12-27T11:31:54.528Z,91.10
2017-12-27T11:34:22.034Z,91.20
2017-12-27T11:36:50.312Z,91.30
2017-12-27T11:39:18.594Z,91.10
2017-12-27T11:41:46.526Z,90.40
2017-12-27T11:44:14.029Z,90.60
2017-12-27T11:46:42.292Z,90.60
2017-12-27T11:49:10.562Z,91.10
2017-12-27T11:51:38.829Z,90.80
2017-12-27T11:54:06.345Z,90.80
2017-12-27T11:56:34.630Z,90.20
2017-12-27T11:59:02.129Z,90.40
2017-12-27T12:01:30.392Z,90.50
2017-12-27T12:03:57.898Z,90.40
2017-12-27T12:06:25.401Z,89.50
2017-12-27T12:08:52.912Z,90.00
2017-12-27T12:11:20.428Z,90.40
2017-12-27T12:13:47.925Z,90.00
2017-12-27T12:16:15.429Z,89.00
2017-12-27T12:18:42.931Z,89.40
2017-12-27T12:21:11.205Z,89.10
2017-12-27T12:23:39.464Z,90.10
2017-12-27T12:26:06.974Z,89.90
2017-12-27T12:28:34.461Z,90.10
2017-12-27T12:31:01.968Z,90.10
2017-12-27T12:33:29.465Z,90.30
2017-12-27T12:35:56.964Z,90.40
2017-12-27T12:38:25.224Z,90.70
2017-12-27T12:40:52.737Z,90.50
2017-12-27T12:43:20.232Z,90.10
2017-12-27T12:45:47.754Z,90.30
2017-12-27T12:48:15.361Z,90.50
2017-12-27T12:50:42.856Z,90.90
2017-12-27T12:53:10.356Z,90.40
2017-12-27T12:55:37.867Z,90.50
2017-12-27T12:58:05.368Z,90.70
2017-12-27T13:00:32.889Z,90.10
2017-12-27T13:03:00.387Z,90.30
2017-12-27T13:05:27.893Z,90.50
2017-12-27T13:07:56.160Z,90.60
2017-12-27T13:10:24.419Z,90.50
2017-12-27T13:12:51.937Z,90.40
2017-12-27T13:15:19.432Z,89.90
2017-12-27T13:17:46.943Z,89.30
2017-12-27T13:20:14.448Z,89.60
2017-12-27T13:22:42.712Z,89.30
2017-12-27T13:25:10.216Z,89.60
2017-12-27T13:27:38.496Z,90.00
2017-12-27T13:30:06.765Z,89.70
2017-12-27T13:32:35.045Z,90.20
2017-12-27T13:35:03.309Z,89.70
2017-12-27T13:37:31.224Z,90.20
2017-12-27T13:39:58.716Z,89.80
2017-12-27T13:42:26.220Z,90.10
2017-12-27T13:44:53.728Z,90.00
2017-12-27T13:47:21.682Z,90.10
2017-12-27T13:49:49.883Z,90.40
2017-12-27T13:52:17.413Z,89.40
2017-12-27T13:54:44.917Z,90.00
2017-12-27T13:57:13.213Z,90.30
2017-12-27T13:59:41.472Z,89.00
2017-12-27T14:02:09.741Z,89.40
2017-12-27T14:04:37.240Z,89.30
2017-12-27T14:07:04.751Z,89.20
2017-12-27T14:09:32.261Z,89.80
2017-12-27T14:11:59.760Z,89.60
2017-12-27T14:14:27.309Z,90.00
2017-12-27T14:16:54.776Z,89.00
2017-12-27T14:19:22.293Z,89.90
2017-12-27T14:21:49.798Z,88.80
2017-12-27T14:24:17.307Z,88.90
2017-12-27T14:26:44.804Z,89.00
2017-12-27T14:29:12.318Z,90.00
2017-12-27T14:31:39.825Z,90.00
2017-12-27T14:34:07.329Z,90.20
2017-12-27T14:36:34.832Z,90.10
2017-12-27T14:39:02.328Z,90.00
2017-12-27T14:41:29.858Z,90.20
2017-12-27T14:43:57.355Z,89.90
2017-12-27T14:46:25.620Z,90.50
2017-12-27T14:48:53.948Z,90.40
2017-12-27T14:51:22.157Z,90.70
2017-12-27T14:53:49.664Z,90.30
2017-12-27T14:56:17.556Z,90.50
2017-12-27T14:58:45.452Z,90.80
2017-12-27T15:01:12.962Z,90.90
2017-12-27T15:03:41.224Z,90.90
2017-12-27T15:06:08.728Z,91.00
2017-12-27T15:08:36.228Z,91.10
2017-12-27T15:11:04.505Z,91.70
2017-12-27T15:13:32.789Z,91.50
2017-12-27T15:16:01.062Z,91.30
2017-12-27T15:18:28.961Z,90.80
2017-12-27T15:20:56.464Z,91.10
2017-12-27T15:23:23.973Z,91.10
2017-12-27T15:25:51.468Z,91.40
2017-12-27T15:28:18.972Z,91.50
2017-12-27T15:30:46.506Z,91.70
2017-12-27T15:33:14.009Z,91.70
2017-12-27T15:35:41.504Z,91.50
2017-12-27T15:38:09.016Z,91.50
2017-12-27T15:40:36.525Z,92.70
2017-12-27T15:43:04.021Z,92.10
2017-12-27T15:45:31.540Z,92.30
2017-12-27T15:47:59.040Z,91.20
2017-12-27T15:50:26.536Z,91.50
2017-12-27T15:52:54.048Z,92.20
2017-12-27T15:55:22.318Z,92.10
2017-12-27T15:57:50.603Z,92.10
2017-12-27T16:00:18.860Z,92.50
2017-12-27T16:02:46.364Z,92.30
2017-12-27T16:05:14.275Z,92.20
2017-12-27T16:07:41.787Z,92.40
2017-12-27T16:10:09.297Z,92.50
2017-12-27T16:12:36.789Z,92.70
2017-12-27T16:15:04.686Z,92.60
2017-12-27T16:17:32.193Z,92.80
2017-12-27T16:20:00.480Z,93.30
2017-12-27T16:22:28.758Z,93.30
2017-12-27T16:24:56.686Z,93.00
2017-12-27T16:27:24.148Z,93.20
2017-12-27T16:29:51.657Z,93.10
2017-12-27T16:32:19.161Z,93.10
2017-12-27T16:34:46.656Z,93.20
2017-12-27T16:37:14.931Z,93.70
2017-12-27T16:39:43.205Z,93.90
2017-12-27T16:42:11.493Z,93.90
2017-12-27T16:44:39.764Z,94.10
2017-12-27T16:47:08.028Z,94.10
2017-12-27T16:49:35.538Z,93.70
2017-12-27T16:52:03.032Z,93.90
2017-12-27T16:54:30.536Z,94.10
2017-12-27T16:56:58.028Z,94.20
2017-12-27T16:59:25.532Z,94.50
2017-12-27T17:01:53.839Z,94.70
2017-12-27T17:04:22.068Z,94.40
2017-12-27T17:06:49.572Z,94.40
2017-12-27T17:09:17.072Z,94.40
2017-12-27T17:11:44.585Z,94.40
2017-12-27T17:14:12.178Z,94.50
2017-12-27T17:16:39.670Z,94.70
2017-12-27T17:19:07.185Z,94.90
2017-12-27T17:21:34.683Z,94.80
2017-12-27T17:24:02.188Z,94.70
2017-12-27T17:26:29.690Z,95.20
2017-12-27T17:28:57.195Z,95.00
2017-12-27T17:31:24.709Z,95.00
2017-12-27T17:33:52.221Z,94.50
2017-12-27T17:36:19.722Z,94.70
2017-12-27T17:38:47.227Z,94.70
2017-12-27T17:41:14.716Z,94.90
2017-12-27T17:43:42.225Z,94.60
2017-12-27T17:46:10.508Z,94.90
2017-12-27T17:48:38.776Z,94.80
2017-12-27T17:51:07.113Z,95.10
2017-12-27T17:53:35.333Z,95.20
2017-12-27T17:56:03.603Z,95.70
2017-12-27T17:58:31.868Z,95.90
2017-12-27T18:00:59.365Z,95.30
2017-12-27T18:03:26.864Z,95.50
2017-12-27T18:05:54.369Z,95.30
2017-12-27T18:08:22.641Z,95.10
2017-12-27T18:10:50.906Z,95.00
2017-12-27T18:13:19.176Z,95.10
2017-12-27T18:15:46.681Z,95.00
2017-12-27T18:18:14.201Z,94.80
2017-12-27T18:20:42.469Z,95.20
2017-12-27T18:23:09.976Z,95.20
2017-12-27T18:25:37.472Z,95.50
2017-12-27T18:28:04.973Z,95.40
2017-12-27T18:30:32.481Z,95.70
2017-12-27T18:32:59.985Z,95.80
2017-12-27T18:35:28.256Z,95.40
2017-12-27T18:37:56.521Z,95.50
2017-12-27T18:40:24.788Z,95.30
2017-12-27T18:42:52.297Z,95.30
2017-12-27T18:45:19.804Z,95.20
2017-12-27T18:47:47.312Z,95.40
2017-12-27T18:50:14.818Z,95.40
2017-12-27T18:52:42.319Z,95.30
2017-12-27T18:55:09.821Z,95.30
2017-12-27T18:57:37.383Z,95.30
2017-12-27T19:00:04.866Z,95.30
2017-12-27T19:02:32.364Z,95.60
2017-12-27T19:04:59.912Z,95.80
2017-12-27T19:07:27.446Z,95.80
2017-12-27T19:09:54.942Z,95.70
2017-12-27T19:12:22.436Z,95.40
2017-12-27T19:14:49.942Z,95.20
2017-12-27T19:17:17.456Z,95.20
2017-12-27T19:19:44.961Z,95.40
2017-12-27T19:22:12.456Z,95.20
2017-12-27T19:24:39.971Z,95.20
2017-12-27T19:27:08.232Z,95.40
2017-12-27T19:29:36.500Z,95.70
2017-12-27T19:32:04.025Z,95.40
2017-12-27T19:34:31.524Z,95.70
2017-12-27T19:36:59.793Z,95.60
2017-12-27T19:39:27.292Z,95.50
2017-12-27T19:41:54.808Z,95.30
2017-12-27T19:44:22.304Z,95.60
2017-12-27T19:46:49.800Z,95.70
2017-12-27T19:49:17.308Z,95.70
2017-12-27T19:51:45.585Z,96.30
2017-12-27T19:54:13.852Z,96.50
2017-12-27T19:56:42.116Z,96.40
2017-12-27T19:59:09.621Z,96.40
2017-12-27T20:01:37.124Z,96.10
2017-12-27T20:04:04.630Z,95.90
2017-12-27T20:06:32.137Z,96.10
2017-12-27T20:08:59.636Z,96.30
2017-12-27T20:11:27.136Z,96.70
2017-12-27T20:13:54.645Z,96.50
2017-12-27T20:16:22.909Z,96.30
2017-12-27T20:18:51.186Z,96.00
2017-12-27T20:21:18.684Z,95.90
2017-12-27T20:23:46.180Z,96.00
2017-12-27T20:26:13.693Z,96.20
2017-12-27T20:28:41.188Z,95.90
2017-12-27T20:31:08.701Z,95.90
2017-12-27T20:33:36.205Z,95.90
2017-12-27T20:36:03.713Z,95.20
2017-12-27T20:38:31.972Z,95.00
2017-12-27T20:41:00.245Z,95.00
2017-12-27T20:43:27.756Z,95.00
2017-12-27T20:45:55.256Z,95.50
2017-12-27T20:48:22.765Z,95.30
2017-12-27T20:50:50.274Z,95.80
2017-12-27T20:53:17.776Z,95.80
2017-12-27T20:55:45.285Z,95.70
2017-12-27T20:58:12.785Z,95.60
2017-12-27T21:00:40.294Z,95.60
2017-12-27T21:03:07.801Z,95.40
2017-12-27T21:05:36.073Z,95.80
2017-12-27T21:08:03.572Z,95.80
2017-12-27T21:10:31.085Z,95.80
2017-12-27T21:12:59.356Z,96.30
2017-12-27T21:15:27.624Z,96.20
2017-12-27T21:17:55.908Z,96.20
2017-12-27T21:20:24.173Z,96.10
2017-12-27T21:22:51.677Z,96.00
2017-12-27T21:25:19.180Z,96.50
2017-12-27T21:27:46.681Z,96.00
2017-12-27T21:30:14.189Z,96.20
2017-12-27T21:32:41.684Z,96.30
2017-12-27T21:35:09.961Z,96.50
2017-12-27T21:37:38.224Z,96.20
2017-12-27T21:40:06.521Z,95.90
2017-12-27T21:42:34.776Z,95.90
2017-12-27T21:45:03.036Z,96.10
2017-12-27T21:47:36.285Z,96.10
2017-12-27T21:50:04.189Z,95.70
2017-12-27T21:52:31.693Z,96.00
2017-12-27T21:54:59.210Z,95.90
2017-12-27T21:57:26.708Z,95.80
2017-12-27T22:00:00.010Z,96.00
2017-12-27T22:02:27.496Z,96.10
2017-12-27T22:04:55.016Z,95.50
2017-12-27T22:07:23.282Z,95.50
2017-12-27T22:09:50.810Z,95.00
2017-12-27T22:12:18.285Z,94.50
2017-12-27T22:14:45.789Z,94.80
2017-12-27T22:17:13.293Z,94.70
2017-12-27T22:19:40.801Z,93.70
2017-12-27T22:22:08.296Z,93.90
2017-12-27T22:24:35.800Z,93.90
2017-12-27T22:27:04.065Z,93.40
2017-12-27T22:29:32.334Z,93.60
2017-12-27T22:31:59.846Z,93.60
2017-12-27T22:34:27.349Z,92.80
2017-12-27T22:36:55.244Z,92.90
2017-12-27T22:39:22.740Z,92.80
2017-12-27T22:41:50.645Z,92.50
2017-12-27T22:44:18.158Z,92.70
2017-12-27T22:46:45.656Z,92.30
2017-12-27T22:49:13.160Z,92.50
2017-12-27T22:51:40.659Z,92.30
2017-12-27T22:54:08.161Z,91.90
2017-12-27T22:56:35.681Z,92.10
2017-12-27T22:59:03.176Z,91.90
2017-12-27T23:01:31.444Z,91.90
2017-12-27T23:03:59.714Z,91.20
2017-12-27T23:06:27.236Z,91.20
2017-12-27T23:08:54.741Z,91.40
2017-12-27T23:11:22.999Z,90.20
2017-12-27T23:13:50.510Z,89.60
2017-12-27T23:16:18.004Z,90.20
2017-12-27T23:18:45.512Z,88.10
2017-12-27T23:21:13.012Z,88.50
2017-12-27T23:23:40.512Z,88.40
2017-12-27T23:26:08.780Z,89.30
2017-12-27T23:28:37.073Z,88.70
2017-12-27T23:31:04.569Z,88.70
2017-12-27T23:33:32.064Z,87.40
2017-12-27T23:36:00.041Z,87.60
2017-12-27T23:38:28.858Z,86.90
2017-12-27T23:40:58.273Z,88.00
2017-12-27T23:43:26.330Z,88.60
2017-12-27T23:45:54.768Z,87.70
2017-12-27T23:48:22.839Z,88.20
2017-12-27T23:50:50.894Z,88.50
2017-12-27T23:53:18.940Z,87.20
2017-12-27T23:55:46.997Z,86.90
2017-12-27T23:58:15.054Z,87.40
